sensor_id;sensor_type;location;lat;lon;timestamp;P1;durP1;ratioP1;P2;durP2;ratioP2
54360;SDS011;40258;53.936;27.540;2022-08-06T00:00:17;14.05;;;10.75;;
54360;SDS011;40258;53.936;27.540;2022-08-06T00:02:47;15.15;;;11.88;;
54360;SDS011;40258;53.936;27.540;2022-08-06T00:05:16;12.95;;;11.40;;
54360;SDS011;40258;53.936;27.540;2022-08-06T00:07:44;14.70;;;11.07;;
54360;SDS011;40258;53.936;27.540;2022-08-06T00:10:13;15.35;;;11.23;;
54360;SDS011;40258;53.936;27.540;2022-08-06T00:12:44;13.75;;;11.25;;
54360;SDS011;40258;53.936;27.540;2022-08-06T00:15:13;12.70;;;10.35;;
54360;SDS011;40258;53.936;27.540;2022-08-06T00:17:45;13.95;;;11.32;;
54360;SDS011;40258;53.936;27.540;2022-08-06T00:20:15;14.05;;;10.82;;
54360;SDS011;40258;53.936;27.540;2022-08-06T00:22:44;14.98;;;11.35;;
54360;SDS011;40258;53.936;27.540;2022-08-06T00:25:12;15.15;;;11.60;;
54360;SDS011;40258;53.936;27.540;2022-08-06T00:27:41;15.57;;;11.77;;
54360;SDS011;40258;53.936;27.540;2022-08-06T00:30:10;13.73;;;10.77;;
54360;SDS011;40258;53.936;27.540;2022-08-06T00:32:39;13.07;;;11.20;;
54360;SDS011;40258;53.936;27.540;2022-08-06T00:35:09;13.05;;;11.10;;
54360;SDS011;40258;53.936;27.540;2022-08-06T00:37:37;14.20;;;11.45;;
54360;SDS011;40258;53.936;27.540;2022-08-06T00:40:06;15.95;;;11.18;;
54360;SDS011;40258;53.936;27.540;2022-08-06T00:42:36;15.15;;;10.80;;
54360;SDS011;40258;53.936;27.540;2022-08-06T00:45:05;15.40;;;10.80;;
54360;SDS011;40258;53.936;27.540;2022-08-06T00:47:34;15.25;;;11.52;;
54360;SDS011;40258;53.936;27.540;2022-08-06T00:50:03;15.93;;;11.30;;
54360;SDS011;40258;53.936;27.540;2022-08-06T00:52:34;13.77;;;11.80;;
54360;SDS011;40258;53.936;27.540;2022-08-06T00:55:03;15.63;;;11.93;;
54360;SDS011;40258;53.936;27.540;2022-08-06T00:57:33;14.43;;;12.30;;
54360;SDS011;40258;53.936;27.540;2022-08-06T01:00:01;15.93;;;11.93;;
54360;SDS011;40258;53.936;27.540;2022-08-06T01:02:31;14.98;;;11.73;;
54360;SDS011;40258;53.936;27.540;2022-08-06T01:04:59;17.48;;;12.57;;
54360;SDS011;40258;53.936;27.540;2022-08-06T01:07:28;13.73;;;11.70;;
54360;SDS011;40258;53.936;27.540;2022-08-06T01:09:58;19.25;;;12.05;;
54360;SDS011;40258;53.936;27.540;2022-08-06T01:12:27;13.55;;;11.85;;
54360;SDS011;40258;53.936;27.540;2022-08-06T01:14:55;16.90;;;12.23;;
54360;SDS011;40258;53.936;27.540;2022-08-06T01:17:26;17.88;;;12.57;;
54360;SDS011;40258;53.936;27.540;2022-08-06T01:20:02;17.67;;;11.60;;
54360;SDS011;40258;53.936;27.540;2022-08-06T01:22:58;17.60;;;13.13;;
54360;SDS011;40258;53.936;27.540;2022-08-06T01:26:02;17.63;;;13.00;;
54360;SDS011;40258;53.936;27.540;2022-08-06T01:29:04;15.45;;;12.48;;
54360;SDS011;40258;53.936;27.540;2022-08-06T01:31:38;16.97;;;12.53;;
54360;SDS011;40258;53.936;27.540;2022-08-06T01:34:14;18.03;;;12.93;;
54360;SDS011;40258;53.936;27.540;2022-08-06T01:36:49;17.92;;;12.95;;
54360;SDS011;40258;53.936;27.540;2022-08-06T01:39:23;17.53;;;13.40;;
54360;SDS011;40258;53.936;27.540;2022-08-06T01:41:55;18.23;;;13.35;;
54360;SDS011;40258;53.936;27.540;2022-08-06T01:44:29;16.60;;;12.57;;
54360;SDS011;40258;53.936;27.540;2022-08-06T01:47:02;17.83;;;12.68;;
54360;SDS011;40258;53.936;27.540;2022-08-06T01:49:36;15.82;;;12.60;;
54360;SDS011;40258;53.936;27.540;2022-08-06T01:52:08;16.80;;;12.60;;
54360;SDS011;40258;53.936;27.540;2022-08-06T01:54:40;16.98;;;13.35;;
54360;SDS011;40258;53.936;27.540;2022-08-06T01:57:13;17.40;;;13.00;;
54360;SDS011;40258;53.936;27.540;2022-08-06T01:59:47;17.15;;;13.13;;
54360;SDS011;40258;53.936;27.540;2022-08-06T02:02:21;17.73;;;12.73;;
54360;SDS011;40258;53.936;27.540;2022-08-06T02:04:55;15.95;;;12.98;;
54360;SDS011;40258;53.936;27.540;2022-08-06T02:07:30;19.33;;;13.18;;
54360;SDS011;40258;53.936;27.540;2022-08-06T02:10:03;15.32;;;12.82;;
54360;SDS011;40258;53.936;27.540;2022-08-06T02:12:34;15.60;;;12.60;;
54360;SDS011;40258;53.936;27.540;2022-08-06T02:15:09;16.27;;;12.25;;
54360;SDS011;40258;53.936;27.540;2022-08-06T02:17:41;19.50;;;13.05;;
54360;SDS011;40258;53.936;27.540;2022-08-06T02:20:14;18.20;;;13.38;;
54360;SDS011;40258;53.936;27.540;2022-08-06T02:22:47;18.83;;;13.60;;
54360;SDS011;40258;53.936;27.540;2022-08-06T02:25:17;17.33;;;13.30;;
54360;SDS011;40258;53.936;27.540;2022-08-06T02:27:48;16.40;;;13.48;;
54360;SDS011;40258;53.936;27.540;2022-08-06T02:30:21;16.80;;;12.75;;
54360;SDS011;40258;53.936;27.540;2022-08-06T02:32:53;16.98;;;13.18;;
54360;SDS011;40258;53.936;27.540;2022-08-06T02:35:21;16.42;;;13.02;;
54360;SDS011;40258;53.936;27.540;2022-08-06T02:37:52;16.45;;;12.82;;
54360;SDS011;40258;53.936;27.540;2022-08-06T02:40:32;16.55;;;14.43;;
54360;SDS011;40258;53.936;27.540;2022-08-06T02:43:04;21.10;;;13.88;;
54360;SDS011;40258;53.936;27.540;2022-08-06T02:45:38;19.75;;;12.95;;
54360;SDS011;40258;53.936;27.540;2022-08-06T02:48:12;17.92;;;13.13;;
54360;SDS011;40258;53.936;27.540;2022-08-06T02:50:47;19.10;;;14.45;;
54360;SDS011;40258;53.936;27.540;2022-08-06T02:53:19;17.48;;;12.82;;
54360;SDS011;40258;53.936;27.540;2022-08-06T02:55:54;17.75;;;13.07;;
54360;SDS011;40258;53.936;27.540;2022-08-06T02:58:32;18.13;;;13.68;;
54360;SDS011;40258;53.936;27.540;2022-08-06T03:01:05;18.20;;;14.10;;
54360;SDS011;40258;53.936;27.540;2022-08-06T03:03:39;17.10;;;14.00;;
54360;SDS011;40258;53.936;27.540;2022-08-06T03:06:11;22.50;;;13.65;;
54360;SDS011;40258;53.936;27.540;2022-08-06T03:08:42;18.77;;;14.25;;
54360;SDS011;40258;53.936;27.540;2022-08-06T03:11:12;18.45;;;14.55;;
54360;SDS011;40258;53.936;27.540;2022-08-06T03:13:44;20.45;;;13.50;;
54360;SDS011;40258;53.936;27.540;2022-08-06T03:16:15;16.95;;;13.30;;
54360;SDS011;40258;53.936;27.540;2022-08-06T03:18:46;16.67;;;12.50;;
54360;SDS011;40258;53.936;27.540;2022-08-06T03:21:16;14.25;;;12.27;;
54360;SDS011;40258;53.936;27.540;2022-08-06T03:23:47;16.83;;;12.23;;
54360;SDS011;40258;53.936;27.540;2022-08-06T03:26:17;16.02;;;13.15;;
54360;SDS011;40258;53.936;27.540;2022-08-06T03:28:46;15.68;;;11.70;;
54360;SDS011;40258;53.936;27.540;2022-08-06T03:31:17;14.50;;;11.93;;
54360;SDS011;40258;53.936;27.540;2022-08-06T03:33:46;16.25;;;12.45;;
54360;SDS011;40258;53.936;27.540;2022-08-06T03:36:15;17.33;;;12.48;;
54360;SDS011;40258;53.936;27.540;2022-08-06T03:38:46;16.13;;;12.40;;
54360;SDS011;40258;53.936;27.540;2022-08-06T03:41:20;16.30;;;12.52;;
54360;SDS011;40258;53.936;27.540;2022-08-06T03:43:51;14.98;;;12.35;;
54360;SDS011;40258;53.936;27.540;2022-08-06T03:46:23;16.33;;;12.35;;
54360;SDS011;40258;53.936;27.540;2022-08-06T03:48:56;17.63;;;12.57;;
54360;SDS011;40258;53.936;27.540;2022-08-06T03:51:27;14.88;;;11.82;;
54360;SDS011;40258;53.936;27.540;2022-08-06T03:53:57;15.80;;;11.68;;
54360;SDS011;40258;53.936;27.540;2022-08-06T03:56:28;14.65;;;12.52;;
54360;SDS011;40258;53.936;27.540;2022-08-06T03:58:59;15.20;;;11.55;;
54360;SDS011;40258;53.936;27.540;2022-08-06T04:01:34;13.70;;;11.23;;
54360;SDS011;40258;53.936;27.540;2022-08-06T04:04:04;14.32;;;11.32;;
54360;SDS011;40258;53.936;27.540;2022-08-06T04:06:33;18.55;;;11.43;;
54360;SDS011;40258;53.936;27.540;2022-08-06T04:09:03;15.38;;;11.43;;
54360;SDS011;40258;53.936;27.540;2022-08-06T04:11:34;16.73;;;12.35;;
54360;SDS011;40258;53.936;27.540;2022-08-06T04:14:03;16.55;;;12.05;;
54360;SDS011;40258;53.936;27.540;2022-08-06T04:16:34;14.88;;;11.77;;
54360;SDS011;40258;53.936;27.540;2022-08-06T04:19:04;13.82;;;11.05;;
54360;SDS011;40258;53.936;27.540;2022-08-06T04:21:36;14.70;;;11.65;;
54360;SDS011;40258;53.936;27.540;2022-08-06T04:24:06;14.40;;;11.32;;
54360;SDS011;40258;53.936;27.540;2022-08-06T04:26:34;13.95;;;10.57;;
54360;SDS011;40258;53.936;27.540;2022-08-06T04:29:06;13.27;;;10.93;;
54360;SDS011;40258;53.936;27.540;2022-08-06T04:31:40;15.02;;;10.90;;
54360;SDS011;40258;53.936;27.540;2022-08-06T04:34:15;13.63;;;10.88;;
54360;SDS011;40258;53.936;27.540;2022-08-06T04:36:50;14.68;;;11.45;;
54360;SDS011;40258;53.936;27.540;2022-08-06T04:39:20;15.23;;;11.98;;
54360;SDS011;40258;53.936;27.540;2022-08-06T04:41:49;16.52;;;11.52;;
54360;SDS011;40258;53.936;27.540;2022-08-06T04:44:19;20.70;;;11.63;;
54360;SDS011;40258;53.936;27.540;2022-08-06T04:46:49;14.63;;;11.20;;
54360;SDS011;40258;53.936;27.540;2022-08-06T04:49:18;12.57;;;10.95;;
54360;SDS011;40258;53.936;27.540;2022-08-06T04:51:47;19.05;;;11.60;;
54360;SDS011;40258;53.936;27.540;2022-08-06T04:54:16;15.68;;;11.38;;
54360;SDS011;40258;53.936;27.540;2022-08-06T04:56:44;14.90;;;11.25;;
54360;SDS011;40258;53.936;27.540;2022-08-06T04:59:15;13.25;;;11.52;;
54360;SDS011;40258;53.936;27.540;2022-08-06T05:01:44;13.95;;;10.82;;
54360;SDS011;40258;53.936;27.540;2022-08-06T05:04:15;14.20;;;11.93;;
54360;SDS011;40258;53.936;27.540;2022-08-06T05:06:45;16.15;;;11.48;;
54360;SDS011;40258;53.936;27.540;2022-08-06T05:09:21;15.52;;;12.05;;
54360;SDS011;40258;53.936;27.540;2022-08-06T05:11:53;14.98;;;12.70;;
54360;SDS011;40258;53.936;27.540;2022-08-06T05:14:35;15.65;;;12.35;;
54360;SDS011;40258;53.936;27.540;2022-08-06T05:17:07;15.18;;;11.52;;
54360;SDS011;40258;53.936;27.540;2022-08-06T05:19:43;14.65;;;12.00;;
54360;SDS011;40258;53.936;27.540;2022-08-06T05:22:15;15.23;;;12.95;;
54360;SDS011;40258;53.936;27.540;2022-08-06T05:24:46;16.85;;;12.23;;
54360;SDS011;40258;53.936;27.540;2022-08-06T05:27:16;14.10;;;11.88;;
54360;SDS011;40258;53.936;27.540;2022-08-06T05:29:45;14.25;;;11.80;;
54360;SDS011;40258;53.936;27.540;2022-08-06T05:32:14;14.52;;;11.52;;
54360;SDS011;40258;53.936;27.540;2022-08-06T05:34:47;14.68;;;12.70;;
54360;SDS011;40258;53.936;27.540;2022-08-06T05:37:16;14.00;;;12.45;;
54360;SDS011;40258;53.936;27.540;2022-08-06T05:39:45;17.70;;;11.60;;
54360;SDS011;40258;53.936;27.540;2022-08-06T05:42:13;16.63;;;12.30;;
54360;SDS011;40258;53.936;27.540;2022-08-06T05:44:42;13.65;;;11.93;;
54360;SDS011;40258;53.936;27.540;2022-08-06T05:47:12;13.88;;;12.38;;
54360;SDS011;40258;53.936;27.540;2022-08-06T05:49:48;17.80;;;12.60;;
54360;SDS011;40258;53.936;27.540;2022-08-06T05:52:23;15.65;;;12.63;;
54360;SDS011;40258;53.936;27.540;2022-08-06T05:54:58;14.90;;;12.95;;
54360;SDS011;40258;53.936;27.540;2022-08-06T05:57:33;16.27;;;12.23;;
54360;SDS011;40258;53.936;27.540;2022-08-06T06:00:07;17.17;;;12.00;;
54360;SDS011;40258;53.936;27.540;2022-08-06T06:02:40;16.63;;;12.00;;
54360;SDS011;40258;53.936;27.540;2022-08-06T06:05:13;16.65;;;12.45;;
54360;SDS011;40258;53.936;27.540;2022-08-06T06:07:43;13.60;;;11.95;;
54360;SDS011;40258;53.936;27.540;2022-08-06T06:10:12;15.07;;;12.10;;
54360;SDS011;40258;53.936;27.540;2022-08-06T06:12:41;16.10;;;12.13;;
54360;SDS011;40258;53.936;27.540;2022-08-06T06:15:11;15.43;;;12.48;;
54360;SDS011;40258;53.936;27.540;2022-08-06T06:17:46;17.02;;;13.60;;
54360;SDS011;40258;53.936;27.540;2022-08-06T06:20:39;16.02;;;12.95;;
54360;SDS011;40258;53.936;27.540;2022-08-06T06:23:17;17.48;;;13.18;;
54360;SDS011;40258;53.936;27.540;2022-08-06T06:25:55;16.35;;;12.10;;
54360;SDS011;40258;53.936;27.540;2022-08-06T06:28:37;15.30;;;12.75;;
54360;SDS011;40258;53.936;27.540;2022-08-06T06:31:25;15.25;;;11.75;;
54360;SDS011;40258;53.936;27.540;2022-08-06T06:34:00;13.93;;;12.43;;
54360;SDS011;40258;53.936;27.540;2022-08-06T06:36:38;14.95;;;11.85;;
54360;SDS011;40258;53.936;27.540;2022-08-06T06:42:05;15.65;;;12.27;;
54360;SDS011;40258;53.936;27.540;2022-08-06T06:44:39;14.02;;;12.30;;
54360;SDS011;40258;53.936;27.540;2022-08-06T06:47:15;14.63;;;12.10;;
54360;SDS011;40258;53.936;27.540;2022-08-06T06:49:51;15.90;;;13.13;;
54360;SDS011;40258;53.936;27.540;2022-08-06T06:52:28;13.60;;;12.13;;
54360;SDS011;40258;53.936;27.540;2022-08-06T06:55:02;15.85;;;12.88;;
54360;SDS011;40258;53.936;27.540;2022-08-06T06:57:39;16.40;;;13.32;;
54360;SDS011;40258;53.936;27.540;2022-08-06T07:00:12;17.35;;;14.20;;
54360;SDS011;40258;53.936;27.540;2022-08-06T07:02:42;15.73;;;13.00;;
54360;SDS011;40258;53.936;27.540;2022-08-06T07:05:15;14.27;;;12.75;;
54360;SDS011;40258;53.936;27.540;2022-08-06T07:07:46;15.77;;;12.43;;
54360;SDS011;40258;53.936;27.540;2022-08-06T07:10:17;17.13;;;12.80;;
54360;SDS011;40258;53.936;27.540;2022-08-06T07:12:48;15.25;;;12.75;;
54360;SDS011;40258;53.936;27.540;2022-08-06T07:15:17;13.82;;;12.32;;
54360;SDS011;40258;53.936;27.540;2022-08-06T07:17:48;16.77;;;13.32;;
54360;SDS011;40258;53.936;27.540;2022-08-06T07:20:20;15.30;;;12.20;;
54360;SDS011;40258;53.936;27.540;2022-08-06T07:22:54;15.77;;;11.27;;
54360;SDS011;40258;53.936;27.540;2022-08-06T07:25:26;14.02;;;12.38;;
54360;SDS011;40258;53.936;27.540;2022-08-06T07:27:55;14.77;;;12.43;;
54360;SDS011;40258;53.936;27.540;2022-08-06T07:30:24;14.43;;;11.85;;
54360;SDS011;40258;53.936;27.540;2022-08-06T07:32:53;17.15;;;12.40;;
54360;SDS011;40258;53.936;27.540;2022-08-06T07:35:21;13.40;;;11.13;;
54360;SDS011;40258;53.936;27.540;2022-08-06T07:37:53;14.63;;;12.55;;
54360;SDS011;40258;53.936;27.540;2022-08-06T07:40:25;15.35;;;12.02;;
54360;SDS011;40258;53.936;27.540;2022-08-06T07:42:59;14.00;;;12.13;;
54360;SDS011;40258;53.936;27.540;2022-08-06T07:45:33;12.95;;;11.35;;
54360;SDS011;40258;53.936;27.540;2022-08-06T07:48:04;16.15;;;12.48;;
54360;SDS011;40258;53.936;27.540;2022-08-06T07:50:35;13.85;;;12.15;;
54360;SDS011;40258;53.936;27.540;2022-08-06T07:53:07;14.32;;;12.75;;
54360;SDS011;40258;53.936;27.540;2022-08-06T07:55:39;17.58;;;11.65;;
54360;SDS011;40258;53.936;27.540;2022-08-06T07:58:08;14.20;;;10.93;;
54360;SDS011;40258;53.936;27.540;2022-08-06T08:00:38;14.02;;;11.77;;
54360;SDS011;40258;53.936;27.540;2022-08-06T08:03:08;14.82;;;11.43;;
54360;SDS011;40258;53.936;27.540;2022-08-06T08:05:55;15.70;;;12.57;;
54360;SDS011;40258;53.936;27.540;2022-08-06T08:08:43;15.13;;;12.38;;
54360;SDS011;40258;53.936;27.540;2022-08-06T08:11:13;17.90;;;12.13;;
54360;SDS011;40258;53.936;27.540;2022-08-06T08:13:44;16.15;;;11.32;;
54360;SDS011;40258;53.936;27.540;2022-08-06T08:16:13;12.43;;;11.15;;
54360;SDS011;40258;53.936;27.540;2022-08-06T08:18:43;16.65;;;11.25;;
54360;SDS011;40258;53.936;27.540;2022-08-06T08:21:11;13.20;;;11.77;;
54360;SDS011;40258;53.936;27.540;2022-08-06T08:23:43;14.98;;;11.38;;
54360;SDS011;40258;53.936;27.540;2022-08-06T08:26:13;12.43;;;10.82;;
54360;SDS011;40258;53.936;27.540;2022-08-06T08:28:42;12.68;;;10.98;;
54360;SDS011;40258;53.936;27.540;2022-08-06T08:31:11;13.43;;;10.95;;
54360;SDS011;40258;53.936;27.540;2022-08-06T08:33:40;13.65;;;10.93;;
54360;SDS011;40258;53.936;27.540;2022-08-06T08:36:08;12.35;;;10.68;;
54360;SDS011;40258;53.936;27.540;2022-08-06T08:38:37;14.55;;;10.40;;
54360;SDS011;40258;53.936;27.540;2022-08-06T08:41:08;13.88;;;11.25;;
54360;SDS011;40258;53.936;27.540;2022-08-06T08:43:46;13.93;;;11.30;;
54360;SDS011;40258;53.936;27.540;2022-08-06T08:46:21;12.50;;;10.87;;
54360;SDS011;40258;53.936;27.540;2022-08-06T08:48:52;14.25;;;10.93;;
54360;SDS011;40258;53.936;27.540;2022-08-06T08:51:25;12.88;;;11.55;;
54360;SDS011;40258;53.936;27.540;2022-08-06T08:53:55;13.05;;;11.50;;
54360;SDS011;40258;53.936;27.540;2022-08-06T08:56:27;14.70;;;12.10;;
54360;SDS011;40258;53.936;27.540;2022-08-06T08:58:58;14.90;;;11.45;;
54360;SDS011;40258;53.936;27.540;2022-08-06T09:01:28;14.10;;;11.80;;
54360;SDS011;40258;53.936;27.540;2022-08-06T09:03:56;11.88;;;10.10;;
54360;SDS011;40258;53.936;27.540;2022-08-06T09:06:28;12.20;;;10.88;;
54360;SDS011;40258;53.936;27.540;2022-08-06T09:08:58;12.13;;;10.82;;
54360;SDS011;40258;53.936;27.540;2022-08-06T09:11:32;13.98;;;10.57;;
54360;SDS011;40258;53.936;27.540;2022-08-06T09:14:03;12.25;;;10.98;;
54360;SDS011;40258;53.936;27.540;2022-08-06T09:16:36;14.13;;;11.57;;
54360;SDS011;40258;53.936;27.540;2022-08-06T09:19:05;12.93;;;10.48;;
54360;SDS011;40258;53.936;27.540;2022-08-06T09:21:34;12.30;;;11.05;;
54360;SDS011;40258;53.936;27.540;2022-08-06T09:24:04;13.35;;;11.02;;
54360;SDS011;40258;53.936;27.540;2022-08-06T09:26:34;15.45;;;10.93;;
54360;SDS011;40258;53.936;27.540;2022-08-06T09:29:05;12.88;;;10.90;;
54360;SDS011;40258;53.936;27.540;2022-08-06T09:31:47;11.88;;;10.38;;
54360;SDS011;40258;53.936;27.540;2022-08-06T09:34:16;12.80;;;11.30;;
54360;SDS011;40258;53.936;27.540;2022-08-06T09:36:45;13.38;;;10.48;;
54360;SDS011;40258;53.936;27.540;2022-08-06T09:39:15;11.02;;;9.90;;
54360;SDS011;40258;53.936;27.540;2022-08-06T09:41:58;14.00;;;10.43;;
54360;SDS011;40258;53.936;27.540;2022-08-06T09:44:26;12.93;;;10.18;;
54360;SDS011;40258;53.936;27.540;2022-08-06T09:46:55;12.30;;;10.57;;
54360;SDS011;40258;53.936;27.540;2022-08-06T09:49:24;14.20;;;10.52;;
54360;SDS011;40258;53.936;27.540;2022-08-06T09:54:44;12.88;;;10.98;;
54360;SDS011;40258;53.936;27.540;2022-08-06T09:57:15;12.60;;;10.10;;
54360;SDS011;40258;53.936;27.540;2022-08-06T09:59:45;12.05;;;10.60;;
54360;SDS011;40258;53.936;27.540;2022-08-06T10:02:15;11.85;;;10.60;;
54360;SDS011;40258;53.936;27.540;2022-08-06T10:04:48;13.45;;;10.45;;
54360;SDS011;40258;53.936;27.540;2022-08-06T10:07:27;14.38;;;10.35;;
54360;SDS011;40258;53.936;27.540;2022-08-06T10:09:57;11.00;;;9.90;;
54360;SDS011;40258;53.936;27.540;2022-08-06T10:12:27;14.30;;;10.35;;
54360;SDS011;40258;53.936;27.540;2022-08-06T10:14:56;12.90;;;9.23;;
54360;SDS011;40258;53.936;27.540;2022-08-06T10:17:24;10.65;;;9.45;;
54360;SDS011;40258;53.936;27.540;2022-08-06T10:20:05;11.80;;;10.05;;
54360;SDS011;40258;53.936;27.540;2022-08-06T10:22:37;11.13;;;9.73;;
54360;SDS011;40258;53.936;27.540;2022-08-06T10:25:17;12.18;;;10.50;;
54360;SDS011;40258;53.936;27.540;2022-08-06T10:27:49;12.05;;;10.45;;
54360;SDS011;40258;53.936;27.540;2022-08-06T10:30:21;11.75;;;10.20;;
54360;SDS011;40258;53.936;27.540;2022-08-06T10:32:52;14.68;;;10.80;;
54360;SDS011;40258;53.936;27.540;2022-08-06T10:35:27;14.30;;;9.90;;
54360;SDS011;40258;53.936;27.540;2022-08-06T10:37:57;13.40;;;9.50;;
54360;SDS011;40258;53.936;27.540;2022-08-06T10:40:30;14.35;;;11.70;;
54360;SDS011;40258;53.936;27.540;2022-08-06T10:43:03;12.55;;;9.20;;
54360;SDS011;40258;53.936;27.540;2022-08-06T10:45:32;9.75;;;8.75;;
54360;SDS011;40258;53.936;27.540;2022-08-06T10:48:02;9.38;;;8.32;;
54360;SDS011;40258;53.936;27.540;2022-08-06T10:50:33;9.57;;;8.55;;
54360;SDS011;40258;53.936;27.540;2022-08-06T10:53:02;8.65;;;7.43;;
54360;SDS011;40258;53.936;27.540;2022-08-06T10:55:31;10.00;;;7.80;;
54360;SDS011;40258;53.936;27.540;2022-08-06T10:58:02;11.07;;;7.57;;
54360;SDS011;40258;53.936;27.540;2022-08-06T11:00:31;10.00;;;8.05;;
54360;SDS011;40258;53.936;27.540;2022-08-06T11:03:06;9.20;;;7.40;;
54360;SDS011;40258;53.936;27.540;2022-08-06T11:05:59;8.20;;;7.40;;
54360;SDS011;40258;53.936;27.540;2022-08-06T11:08:45;9.30;;;8.15;;
54360;SDS011;40258;53.936;27.540;2022-08-06T11:11:37;9.82;;;7.57;;
54360;SDS011;40258;53.936;27.540;2022-08-06T11:14:20;9.63;;;8.25;;
54360;SDS011;40258;53.936;27.540;2022-08-06T11:16:55;10.10;;;7.38;;
54360;SDS011;40258;53.936;27.540;2022-08-06T11:19:38;7.68;;;6.70;;
54360;SDS011;40258;53.936;27.540;2022-08-06T11:25:03;10.50;;;7.78;;
54360;SDS011;40258;53.936;27.540;2022-08-06T11:27:48;13.30;;;11.98;;
54360;SDS011;40258;53.936;27.540;2022-08-06T11:30:21;10.38;;;7.70;;
54360;SDS011;40258;53.936;27.540;2022-08-06T11:33:05;9.25;;;8.20;;
54360;SDS011;40258;53.936;27.540;2022-08-06T11:35:40;9.82;;;7.97;;
54360;SDS011;40258;53.936;27.540;2022-08-06T11:38:12;9.88;;;8.25;;
54360;SDS011;40258;53.936;27.540;2022-08-06T11:40:55;13.60;;;9.48;;
54360;SDS011;40258;53.936;27.540;2022-08-06T11:46:22;9.55;;;7.68;;
54360;SDS011;40258;53.936;27.540;2022-08-06T11:49:12;9.77;;;7.40;;
54360;SDS011;40258;53.936;27.540;2022-08-06T11:51:47;8.93;;;8.00;;
54360;SDS011;40258;53.936;27.540;2022-08-06T11:54:21;9.20;;;8.10;;
54360;SDS011;40258;53.936;27.540;2022-08-06T12:00:06;9.25;;;7.45;;
54360;SDS011;40258;53.936;27.540;2022-08-06T12:02:49;11.18;;;8.52;;
54360;SDS011;40258;53.936;27.540;2022-08-06T12:05:42;10.23;;;7.60;;
54360;SDS011;40258;53.936;27.540;2022-08-06T12:08:24;8.75;;;7.82;;
54360;SDS011;40258;53.936;27.540;2022-08-06T12:13:59;9.10;;;7.85;;
54360;SDS011;40258;53.936;27.540;2022-08-06T12:16:32;8.73;;;7.70;;
54360;SDS011;40258;53.936;27.540;2022-08-06T12:19:12;9.25;;;7.25;;
54360;SDS011;40258;53.936;27.540;2022-08-06T12:21:42;9.02;;;7.35;;
54360;SDS011;40258;53.936;27.540;2022-08-06T12:24:11;8.43;;;7.55;;
54360;SDS011;40258;53.936;27.540;2022-08-06T12:26:39;9.38;;;7.90;;
54360;SDS011;40258;53.936;27.540;2022-08-06T12:29:09;8.73;;;7.85;;
54360;SDS011;40258;53.936;27.540;2022-08-06T12:31:38;7.82;;;7.03;;
54360;SDS011;40258;53.936;27.540;2022-08-06T12:34:07;9.88;;;8.10;;
54360;SDS011;40258;53.936;27.540;2022-08-06T12:36:36;9.05;;;8.15;;
54360;SDS011;40258;53.936;27.540;2022-08-06T12:39:06;8.80;;;7.90;;
54360;SDS011;40258;53.936;27.540;2022-08-06T12:41:37;12.45;;;8.38;;
54360;SDS011;40258;53.936;27.540;2022-08-06T12:44:08;11.48;;;8.80;;
54360;SDS011;40258;53.936;27.540;2022-08-06T12:46:39;11.27;;;8.30;;
54360;SDS011;40258;53.936;27.540;2022-08-06T12:49:09;11.68;;;9.18;;
54360;SDS011;40258;53.936;27.540;2022-08-06T12:51:40;10.75;;;9.20;;
54360;SDS011;40258;53.936;27.540;2022-08-06T12:54:09;10.07;;;8.77;;
54360;SDS011;40258;53.936;27.540;2022-08-06T12:56:39;10.75;;;9.65;;
54360;SDS011;40258;53.936;27.540;2022-08-06T12:59:08;12.63;;;9.88;;
54360;SDS011;40258;53.936;27.540;2022-08-06T13:01:39;10.93;;;9.30;;
54360;SDS011;40258;53.936;27.540;2022-08-06T13:04:13;17.90;;;12.30;;
54360;SDS011;40258;53.936;27.540;2022-08-06T13:06:44;12.68;;;10.90;;
54360;SDS011;40258;53.936;27.540;2022-08-06T13:09:14;11.88;;;10.50;;
54360;SDS011;40258;53.936;27.540;2022-08-06T13:11:42;11.60;;;10.35;;
54360;SDS011;40258;53.936;27.540;2022-08-06T13:14:13;12.77;;;10.65;;
54360;SDS011;40258;53.936;27.540;2022-08-06T13:16:43;11.77;;;10.50;;
54360;SDS011;40258;53.936;27.540;2022-08-06T13:19:15;12.00;;;9.95;;
54360;SDS011;40258;53.936;27.540;2022-08-06T13:21:56;10.88;;;9.77;;
54360;SDS011;40258;53.936;27.540;2022-08-06T13:24:27;13.35;;;10.82;;
54360;SDS011;40258;53.936;27.540;2022-08-06T13:26:56;11.80;;;10.60;;
54360;SDS011;40258;53.936;27.540;2022-08-06T13:29:25;17.55;;;12.55;;
54360;SDS011;40258;53.936;27.540;2022-08-06T13:31:58;21.85;;;9.63;;
54360;SDS011;40258;53.936;27.540;2022-08-06T13:34:46;9.85;;;7.65;;
54360;SDS011;40258;53.936;27.540;2022-08-06T13:40:15;14.43;;;8.43;;
54360;SDS011;40258;53.936;27.540;2022-08-06T13:42:47;12.98;;;8.10;;
54360;SDS011;40258;53.936;27.540;2022-08-06T13:45:18;11.70;;;7.90;;
54360;SDS011;40258;53.936;27.540;2022-08-06T13:47:48;11.23;;;7.93;;
54360;SDS011;40258;53.936;27.540;2022-08-06T13:50:18;10.93;;;7.97;;
54360;SDS011;40258;53.936;27.540;2022-08-06T13:52:49;8.98;;;6.32;;
54360;SDS011;40258;53.936;27.540;2022-08-06T13:55:21;20.92;;;18.30;;
54360;SDS011;40258;53.936;27.540;2022-08-06T13:57:50;14.93;;;13.10;;
54360;SDS011;40258;53.936;27.540;2022-08-06T14:00:19;11.93;;;8.95;;
54360;SDS011;40258;53.936;27.540;2022-08-06T14:02:48;11.63;;;10.43;;
54360;SDS011;40258;53.936;27.540;2022-08-06T14:05:16;13.02;;;10.63;;
54360;SDS011;40258;53.936;27.540;2022-08-06T14:07:45;10.18;;;8.43;;
54360;SDS011;40258;53.936;27.540;2022-08-06T14:10:15;8.93;;;6.75;;
54360;SDS011;40258;53.936;27.540;2022-08-06T14:12:44;10.70;;;6.78;;
54360;SDS011;40258;53.936;27.540;2022-08-06T14:15:35;9.93;;;6.53;;
54360;SDS011;40258;53.936;27.540;2022-08-06T14:18:03;7.47;;;5.10;;
54360;SDS011;40258;53.936;27.540;2022-08-06T14:20:32;8.98;;;5.75;;
54360;SDS011;40258;53.936;27.540;2022-08-06T14:23:00;9.68;;;5.45;;
54360;SDS011;40258;53.936;27.540;2022-08-06T14:25:30;9.18;;;5.40;;
54360;SDS011;40258;53.936;27.540;2022-08-06T14:28:00;13.15;;;8.50;;
54360;SDS011;40258;53.936;27.540;2022-08-06T14:30:29;13.07;;;8.90;;
54360;SDS011;40258;53.936;27.540;2022-08-06T14:32:58;9.88;;;7.90;;
54360;SDS011;40258;53.936;27.540;2022-08-06T14:35:29;11.40;;;8.63;;
54360;SDS011;40258;53.936;27.540;2022-08-06T14:37:57;11.23;;;8.25;;
54360;SDS011;40258;53.936;27.540;2022-08-06T14:40:26;11.55;;;8.15;;
54360;SDS011;40258;53.936;27.540;2022-08-06T14:43:13;13.25;;;7.38;;
54360;SDS011;40258;53.936;27.540;2022-08-06T14:46:00;10.82;;;7.38;;
54360;SDS011;40258;53.936;27.540;2022-08-06T14:48:29;10.88;;;7.78;;
54360;SDS011;40258;53.936;27.540;2022-08-06T14:50:58;12.27;;;9.05;;
54360;SDS011;40258;53.936;27.540;2022-08-06T14:53:27;10.20;;;8.18;;
54360;SDS011;40258;53.936;27.540;2022-08-06T14:55:56;10.75;;;8.70;;
54360;SDS011;40258;53.936;27.540;2022-08-06T14:58:27;12.60;;;9.23;;
54360;SDS011;40258;53.936;27.540;2022-08-06T15:00:55;13.40;;;9.93;;
54360;SDS011;40258;53.936;27.540;2022-08-06T15:03:24;11.70;;;8.88;;